Su Naz — TC8483 — position and weather

sailwx.info

Track history (hours):
 
Tides and Currents Weather Stations Pressure Air Temp Water Temp Dewpoint Dewpoint Depression Visibility Wind Speed Wind Dir Waves Ship Positions

Su Naz

Last reported at 2017-Sep-24 03:27 UTC. Time now 2017-Sep-24 03:36 UTC.
Position N 36°53' E 030°42'.

Length 16 m.

Type: Pleasure craft. MMSI: 271040489.

Date/timePositionNaut miles runAvg speedWind from/ knotsBaromVisibWave heightAir tempDewpointWater temp
2017-Sep-24 03:27N 36°53' E 030°42'0 0.0
2017-Sep-24 02:54N 36°53' E 030°42'0 0.0
2017-Sep-24 02:27N 36°53' E 030°42'0 0.0
2017-Sep-24 02:00N 36°53' E 030°42'0 0.0
2017-Sep-24 01:30N 36°53' E 030°42'0 0.0
2017-Sep-24 01:00N 36°53' E 030°42'0 0.0
2017-Sep-24 00:24N 36°53' E 030°42'0 0.0
2017-Sep-23 23:57N 36°53' E 030°42'0 0.0
2017-Sep-23 23:30N 36°53' E 030°42'0 0.0
2017-Sep-23 22:30N 36°53' E 030°42'0 0.0
2017-Sep-23 21:12N 36°53' E 030°42'0 0.0
2017-Sep-23 20:57N 36°53' E 030°42'0 0.0
2017-Sep-23 20:24N 36°53' E 030°42'0 0.0
2017-Sep-23 20:00N 36°53' E 030°42'0 0.0
2017-Sep-22 01:47N 36°53' E 030°42'0 0.0
2017-Sep-22 01:23N 36°53' E 030°42'0 0.0
2017-Sep-22 00:59N 36°53' E 030°42'0 0.0
2017-Sep-22 00:23N 36°53' E 030°42'0 0.0
2017-Sep-21 23:59N 36°53' E 030°42'0 0.0
2017-Sep-21 23:29N 36°53' E 030°42'0 0.0
2017-Sep-21 22:53N 36°53' E 030°42'0 0.0
2017-Sep-21 22:29N 36°53' E 030°42'0 0.0
2017-Sep-21 21:47N 36°53' E 030°42'0 0.0
2017-Sep-21 21:23N 36°53' E 030°42'0 0.0
2017-Sep-21 20:56N 36°53' E 030°42'0 0.0
2017-Sep-21 20:17N 36°53' E 030°42'0 0.0
2017-Sep-21 19:47N 36°53' E 030°42'0 0.0
2017-Sep-21 19:29N 36°53' E 030°42'0 0.0
2017-Sep-21 18:59N 36°53' E 030°42'0 0.0
2017-Sep-21 18:20N 36°53' E 030°42'0 0.0
2017-Sep-21 17:56N 36°53' E 030°42'0 0.0
2017-Sep-21 17:29N 36°53' E 030°42'0 0.0
2017-Sep-21 16:59N 36°53' E 030°42'0 0.0
2017-Sep-21 16:25N 36°53' E 030°42'1 2.8
2017-Sep-21 16:00N 36°52' E 030°43'1 1.8
2017-Sep-21 15:21N 36°53' E 030°42'0 0.0
2017-Sep-21 14:54N 36°53' E 030°42'0 0.0
2017-Sep-21 14:30N 36°53' E 030°42'0 0.0
2017-Sep-21 14:00N 36°53' E 030°42'0 0.0
2017-Sep-21 13:12N 36°53' E 030°42'0 0.0
2017-Sep-21 12:51N 36°53' E 030°42'0 0.0
2017-Sep-21 12:27N 36°53' E 030°42'0 0.0
2017-Sep-21 11:57N 36°53' E 030°42'0 0.0
2017-Sep-21 11:30N 36°53' E 030°42'1 1.1
2017-Sep-21 11:00N 36°52' E 030°42'3 5.6
2017-Sep-21 10:30N 36°51' E 030°45'0 0.2
2017-Sep-21 09:42N 36°51' E 030°45'1 5.6
2017-Sep-21 09:31N 36°51' E 030°44'2 3.8
2017-Sep-21 08:52N 36°53' E 030°42'0 0.0
2017-Sep-21 08:28N 36°53' E 030°42'0 0.0
2017-Sep-21 07:58N 36°53' E 030°42'0 0.0
2017-Sep-21 07:25N 36°53' E 030°42'0 0.0
2017-Sep-21 06:49N 36°53' E 030°42'0 0.0
2017-Sep-21 06:28N 36°53' E 030°42'0 0.0
2017-Sep-21 05:55N 36°53' E 030°42'0 0.0
2017-Sep-21 05:25N 36°53' E 030°42'0 0.0
2017-Sep-21 04:58N 36°53' E 030°42'0 0.0
2017-Sep-21 04:28N 36°53' E 030°42'0 0.0
2017-Sep-21 03:58N 36°53' E 030°42'0 0.0
2017-Sep-21 03:28N 36°53' E 030°42'0 0.0
2017-Sep-21 02:58N 36°53' E 030°42'0 0.0
2017-Sep-21 02:28N 36°53' E 030°42'0 0.0
2017-Sep-21 01:52N 36°53' E 030°42'0 0.0
2017-Sep-21 01:13N 36°53' E 030°42'0 0.0
2017-Sep-21 00:58N 36°53' E 030°42'0 0.0
2017-Sep-21 00:28N 36°53' E 030°42'0 0.0
2017-Sep-20 23:58N 36°53' E 030°42'0 0.0
2017-Sep-20 23:28N 36°53' E 030°42'0 0.0
2017-Sep-20 22:58N 36°53' E 030°42'0 0.0
2017-Sep-20 22:28N 36°53' E 030°42'0 0.0
2017-Sep-20 21:58N 36°53' E 030°42'0 0.0
2017-Sep-20 21:28N 36°53' E 030°42'  
2017-Sep-14 14:58N 36°53' E 030°42'1 1.7
2017-Sep-14 14:30N 36°52' E 030°43'1 1.5
2017-Sep-14 13:59N 36°53' E 030°42'0 0.0
2017-Sep-14 12:17N 36°53' E 030°42'0 0.0
2017-Sep-14 11:47N 36°53' E 030°42'0 0.0
2017-Sep-14 11:11N 36°53' E 030°42'0 0.0
2017-Sep-14 10:44N 36°53' E 030°42'0 0.0
2017-Sep-14 10:29N 36°53' E 030°42'0 0.0
2017-Sep-14 09:05N 36°53' E 030°42'0 0.0
2017-Sep-14 08:44N 36°53' E 030°42'0 0.0
2017-Sep-14 08:29N 36°53' E 030°42'0 0.0
2017-Sep-14 07:59N 36°53' E 030°42'0 0.0
2017-Sep-14 07:29N 36°53' E 030°42'0 0.0
2017-Sep-14 06:53N 36°53' E 030°42'0 0.0
2017-Sep-14 06:05N 36°53' E 030°42'0 0.0
2017-Sep-14 05:47N 36°53' E 030°42'0 0.0
2017-Sep-14 05:05N 36°53' E 030°42'0 0.0
2017-Sep-14 04:50N 36°53' E 030°42'0 0.0
2017-Sep-14 04:29N 36°53' E 030°42'0 0.0
2017-Sep-14 03:56N 36°53' E 030°42'  
Track history (hours):
 
Tides and Currents Weather Stations Pressure Air Temp Water Temp Dewpoint Dewpoint Depression Visibility Wind Speed Wind Dir Waves Ship Positions

Su Naz

Last reported at 2017-Sep-24 03:27 UTC. Time now 2017-Sep-24 03:36 UTC.
Position N 36°53' E 030°42'.

Length 16 m.

Type: Pleasure craft. MMSI: 271040489.

Date/timePositionNaut miles runAvg speedWind from/ knotsBaromVisibWave heightAir tempDewpointWater temp
2017-Sep-24 03:27N 36°53' E 030°42'0 0.0
2017-Sep-24 02:54N 36°53' E 030°42'0 0.0
2017-Sep-24 02:27N 36°53' E 030°42'0 0.0
2017-Sep-24 02:00N 36°53' E 030°42'0 0.0
2017-Sep-24 01:30N 36°53' E 030°42'0 0.0
2017-Sep-24 01:00N 36°53' E 030°42'0 0.0
2017-Sep-24 00:24N 36°53' E 030°42'0 0.0
2017-Sep-23 23:57N 36°53' E 030°42'0 0.0
2017-Sep-23 23:30N 36°53' E 030°42'0 0.0
2017-Sep-23 22:30N 36°53' E 030°42'0 0.0
2017-Sep-23 21:12N 36°53' E 030°42'0 0.0
2017-Sep-23 20:57N 36°53' E 030°42'0 0.0
2017-Sep-23 20:24N 36°53' E 030°42'0 0.0
2017-Sep-23 20:00N 36°53' E 030°42'0 0.0
2017-Sep-22 01:47N 36°53' E 030°42'0 0.0
2017-Sep-22 01:23N 36°53' E 030°42'0 0.0
2017-Sep-22 00:59N 36°53' E 030°42'0 0.0
2017-Sep-22 00:23N 36°53' E 030°42'0 0.0
2017-Sep-21 23:59N 36°53' E 030°42'0 0.0
2017-Sep-21 23:29N 36°53' E 030°42'0 0.0
2017-Sep-21 22:53N 36°53' E 030°42'0 0.0
2017-Sep-21 22:29N 36°53' E 030°42'0 0.0
2017-Sep-21 21:47N 36°53' E 030°42'0 0.0
2017-Sep-21 21:23N 36°53' E 030°42'0 0.0
2017-Sep-21 20:56N 36°53' E 030°42'0 0.0
2017-Sep-21 20:17N 36°53' E 030°42'0 0.0
2017-Sep-21 19:47N 36°53' E 030°42'0 0.0
2017-Sep-21 19:29N 36°53' E 030°42'0 0.0
2017-Sep-21 18:59N 36°53' E 030°42'0 0.0
2017-Sep-21 18:20N 36°53' E 030°42'0 0.0
2017-Sep-21 17:56N 36°53' E 030°42'0 0.0
2017-Sep-21 17:29N 36°53' E 030°42'0 0.0
2017-Sep-21 16:59N 36°53' E 030°42'0 0.0
2017-Sep-21 16:25N 36°53' E 030°42'1 2.8
2017-Sep-21 16:00N 36°52' E 030°43'1 1.8
2017-Sep-21 15:21N 36°53' E 030°42'0 0.0
2017-Sep-21 14:54N 36°53' E 030°42'0 0.0
2017-Sep-21 14:30N 36°53' E 030°42'0 0.0
2017-Sep-21 14:00N 36°53' E 030°42'0 0.0
2017-Sep-21 13:12N 36°53' E 030°42'0 0.0
2017-Sep-21 12:51N 36°53' E 030°42'0 0.0
2017-Sep-21 12:27N 36°53' E 030°42'0 0.0
2017-Sep-21 11:57N 36°53' E 030°42'0 0.0
2017-Sep-21 11:30N 36°53' E 030°42'1 1.1
2017-Sep-21 11:00N 36°52' E 030°42'3 5.6
2017-Sep-21 10:30N 36°51' E 030°45'0 0.2
2017-Sep-21 09:42N 36°51' E 030°45'1 5.6
2017-Sep-21 09:31N 36°51' E 030°44'2 3.8
2017-Sep-21 08:52N 36°53' E 030°42'0 0.0
2017-Sep-21 08:28N 36°53' E 030°42'0 0.0
2017-Sep-21 07:58N 36°53' E 030°42'0 0.0
2017-Sep-21 07:25N 36°53' E 030°42'0 0.0
2017-Sep-21 06:49N 36°53' E 030°42'0 0.0
2017-Sep-21 06:28N 36°53' E 030°42'0 0.0
2017-Sep-21 05:55N 36°53' E 030°42'0 0.0
2017-Sep-21 05:25N 36°53' E 030°42'0 0.0
2017-Sep-21 04:58N 36°53' E 030°42'0 0.0
2017-Sep-21 04:28N 36°53' E 030°42'0 0.0
2017-Sep-21 03:58N 36°53' E 030°42'0 0.0
2017-Sep-21 03:28N 36°53' E 030°42'0 0.0
2017-Sep-21 02:58N 36°53' E 030°42'0 0.0
2017-Sep-21 02:28N 36°53' E 030°42'0 0.0
2017-Sep-21 01:52N 36°53' E 030°42'0 0.0
2017-Sep-21 01:13N 36°53' E 030°42'0 0.0
2017-Sep-21 00:58N 36°53' E 030°42'0 0.0
2017-Sep-21 00:28N 36°53' E 030°42'0 0.0
2017-Sep-20 23:58N 36°53' E 030°42'0 0.0
2017-Sep-20 23:28N 36°53' E 030°42'0 0.0
2017-Sep-20 22:58N 36°53' E 030°42'0 0.0
2017-Sep-20 22:28N 36°53' E 030°42'0 0.0
2017-Sep-20 21:58N 36°53' E 030°42'0 0.0
2017-Sep-20 21:28N 36°53' E 030°42'  
2017-Sep-14 14:58N 36°53' E 030°42'1 1.7
2017-Sep-14 14:30N 36°52' E 030°43'1 1.5
2017-Sep-14 13:59N 36°53' E 030°42'0 0.0
2017-Sep-14 12:17N 36°53' E 030°42'0 0.0
2017-Sep-14 11:47N 36°53' E 030°42'0 0.0
2017-Sep-14 11:11N 36°53' E 030°42'0 0.0
2017-Sep-14 10:44N 36°53' E 030°42'0 0.0
2017-Sep-14 10:29N 36°53' E 030°42'0 0.0
2017-Sep-14 09:05N 36°53' E 030°42'0 0.0
2017-Sep-14 08:44N 36°53' E 030°42'0 0.0
2017-Sep-14 08:29N 36°53' E 030°42'0 0.0
2017-Sep-14 07:59N 36°53' E 030°42'0 0.0
2017-Sep-14 07:29N 36°53' E 030°42'0 0.0
2017-Sep-14 06:53N 36°53' E 030°42'0 0.0
2017-Sep-14 06:05N 36°53' E 030°42'0 0.0
2017-Sep-14 05:47N 36°53' E 030°42'0 0.0
2017-Sep-14 05:05N 36°53' E 030°42'0 0.0
2017-Sep-14 04:50N 36°53' E 030°42'0 0.0
2017-Sep-14 04:29N 36°53' E 030°42'0 0.0
2017-Sep-14 03:56N 36°53' E 030°42'  

Dump ship's entire track history